Time;durP1;ratioP1;P1;durP2;ratioP2;P2;SDS_P1;SDS_P2;PMS_P1;PMS_P2;Temp;Humidity;BMP_temperature;BMP_pressure;BME280_temperature;BME280_humidity;BME280_pressure;Samples;Min_cycle;Max_cycle;Signal;HPM_P1;HPM_P2
2021/10/07 00:00:20;;;;;;;32.85;16.83;;;;;;;;;;4128326;28;20147;-71
2021/10/07 00:02:21;;;;;;;25.70;14.38;;;;;;;;;;4110046;28;20120;-71
2021/10/07 00:04:23;;;;;;;26.25;14.93;;;;;;;;;;4128219;28;20519;-71
2021/10/07 00:06:24;;;;;;;26.40;13.88;;;;;;;;;;4110441;28;20422;-71
2021/10/07 00:08:25;;;;;;;32.55;14.65;;;;;;;;;;4121025;28;20062;-71
2021/10/07 00:10:27;;;;;;;21.63;12.95;;;;;;;;;;4110629;28;20556;-71
2021/10/07 00:12:28;;;;;;;19.88;11.55;;;;;;;;;;4109152;28;20031;-71
2021/10/07 00:14:29;;;;;;;23.55;10.55;;;;;;;;;;4116870;28;20486;-70
2021/10/07 00:16:31;;;;;;;20.60;12.68;;;;;;;;;;4115306;28;20509;-71
2021/10/07 00:18:36;;;;;;;21.55;12.98;;;;;;;;;;4126607;28;20470;-70
2021/10/07 00:20:38;;;;;;;28.80;14.43;;;;;;;;;;4121764;28;20031;-71
2021/10/07 00:22:40;;;;;;;21.50;11.65;;;;;;;;;;4106598;28;20125;-71
2021/10/07 00:24:41;;;;;;;28.55;13.90;;;;;;;;;;4122925;28;20042;-71
2021/10/07 00:26:44;;;;;;;21.60;12.80;;;;;;;;;;4112513;28;20126;-71
2021/10/07 00:28:46;;;;;;;27.42;13.75;;;;;;;;;;4114198;28;20083;-70
2021/10/07 00:30:47;;;;;;;23.95;13.18;;;;;;;;;;4116080;28;20469;-71
2021/10/07 00:33:08;;;;;;;25.17;13.32;;;;;;;;;;4117023;28;20097;-70
2021/10/07 00:37:28;;;;;;;21.30;12.48;;;;;;;;;;4116682;28;20039;-70
2021/10/07 00:39:29;;;;;;;19.90;10.63;;;;;;;;;;4116782;28;20532;-71
2021/10/07 00:41:32;;;;;;;22.38;12.25;;;;;;;;;;4115630;28;20029;-71
2021/10/07 00:43:33;;;;;;;23.08;11.00;;;;;;;;;;4114395;28;20054;-71
2021/10/07 00:45:34;;;;;;;21.55;11.95;;;;;;;;;;4117291;28;20426;-70
2021/10/07 00:47:35;;;;;;;27.98;13.15;;;;;;;;;;4113224;28;20129;-70
2021/10/07 00:49:39;;;;;;;31.30;15.30;;;;;;;;;;4112726;28;20058;-71
2021/10/07 00:51:40;;;;;;;35.58;15.48;;;;;;;;;;4115014;28;20045;-71
2021/10/07 00:53:41;;;;;;;30.60;14.40;;;;;;;;;;4127074;28;20046;-71
2021/10/07 00:55:43;;;;;;;23.73;13.32;;;;;;;;;;4127198;28;20050;-71
2021/10/07 00:57:44;;;;;;;24.20;12.73;;;;;;;;;;4128214;28;20069;-71
2021/10/07 00:59:49;;;;;;;27.20;12.43;;;;;;;;;;4112261;28;20141;-71
2021/10/07 01:01:50;;;;;;;28.25;13.52;;;;;;;;;;4111746;28;20034;-71
2021/10/07 01:03:52;;;;;;;30.50;13.85;;;;;;;;;;4126224;28;20517;-71
2021/10/07 01:05:53;;;;;;;29.63;13.70;;;;;;;;;;4113909;28;20058;-71
2021/10/07 01:07:55;;;;;;;32.60;14.63;;;;;;;;;;4100149;28;20099;-71
2021/10/07 01:09:56;;;;;;;34.97;16.75;;;;;;;;;;4098649;28;20059;-71
2021/10/07 01:11:59;;;;;;;38.05;16.55;;;;;;;;;;4132389;28;20109;-70
2021/10/07 01:14:00;;;;;;;33.13;15.77;;;;;;;;;;4130284;28;20133;-71
2021/10/07 01:16:02;;;;;;;40.35;16.98;;;;;;;;;;4112613;28;20075;-72
2021/10/07 01:18:03;;;;;;;32.53;17.75;;;;;;;;;;4130619;28;20479;-71
2021/10/07 01:20:06;;;;;;;40.08;18.23;;;;;;;;;;4113848;28;20054;-72
2021/10/07 01:22:08;;;;;;;54.30;21.33;;;;;;;;;;4113816;28;20027;-69
2021/10/07 01:24:09;;;;;;;59.10;21.85;;;;;;;;;;4130567;28;20046;-69
2021/10/07 01:26:11;;;;;;;77.32;22.10;;;;;;;;;;4129557;28;20045;-69
2021/10/07 01:28:12;;;;;;;46.70;19.80;;;;;;;;;;4119211;28;20046;-71
2021/10/07 01:30:14;;;;;;;39.75;17.50;;;;;;;;;;4111329;28;20429;-71
2021/10/07 01:32:15;;;;;;;34.78;15.85;;;;;;;;;;4105742;28;20470;-72
2021/10/07 01:34:27;;;;;;;54.05;19.70;;;;;;;;;;4121084;28;20513;-71
2021/10/07 01:36:28;;;;;;;67.95;22.67;;;;;;;;;;4113243;28;20038;-71
2021/10/07 01:38:29;;;;;;;65.75;18.05;;;;;;;;;;4116391;28;20514;-71
2021/10/07 01:40:31;;;;;;;101.30;23.52;;;;;;;;;;4097813;28;20035;-72
2021/10/07 01:42:32;;;;;;;104.57;27.33;;;;;;;;;;4115910;28;20105;-70
2021/10/07 01:44:33;;;;;;;98.70;26.90;;;;;;;;;;4116867;28;20034;-70
2021/10/07 01:46:34;;;;;;;121.53;32.17;;;;;;;;;;4117193;28;20066;-70
2021/10/07 01:48:35;;;;;;;114.03;30.17;;;;;;;;;;4099320;28;20546;-70
2021/10/07 01:50:36;;;;;;;149.32;32.17;;;;;;;;;;4098337;28;20102;-71
2021/10/07 01:52:38;;;;;;;91.13;26.10;;;;;;;;;;4108086;28;20550;-70
2021/10/07 01:54:39;;;;;;;157.82;27.88;;;;;;;;;;4098269;28;20043;-72
2021/10/07 01:56:41;;;;;;;230.52;37.45;;;;;;;;;;4113883;28;20039;-72
2021/10/07 01:58:42;;;;;;;189.48;36.95;;;;;;;;;;4125739;28;20487;-70
2021/10/07 02:00:44;;;;;;;82.72;23.75;;;;;;;;;;4113756;28;20039;-71
2021/10/07 02:02:45;;;;;;;97.20;25.50;;;;;;;;;;4108321;28;20417;-71
2021/10/07 02:04:46;;;;;;;64.45;25.45;;;;;;;;;;4113144;28;20134;-71
2021/10/07 02:06:47;;;;;;;112.75;28.63;;;;;;;;;;4124831;28;20470;-70
2021/10/07 02:08:48;;;;;;;98.75;31.02;;;;;;;;;;4115303;28;20082;-71
2021/10/07 02:10:50;;;;;;;102.10;30.48;;;;;;;;;;4111708;28;20046;-70
2021/10/07 02:12:51;;;;;;;107.85;33.95;;;;;;;;;;4113803;28;20506;-70
2021/10/07 02:14:52;;;;;;;117.63;35.53;;;;;;;;;;4115444;28;20069;-70
2021/10/07 02:16:53;;;;;;;126.70;37.35;;;;;;;;;;4126395;28;20461;-71
2021/10/07 02:18:54;;;;;;;97.70;36.03;;;;;;;;;;4104712;28;20410;-70
2021/10/07 02:20:55;;;;;;;116.13;37.15;;;;;;;;;;4120096;28;20120;-71
2021/10/07 02:22:57;;;;;;;130.90;39.90;;;;;;;;;;4112952;28;20069;-72
2021/10/07 02:24:58;;;;;;;128.05;39.00;;;;;;;;;;4115588;28;20054;-71
2021/10/07 02:26:59;;;;;;;158.93;43.05;;;;;;;;;;4127007;28;20538;-71
2021/10/07 02:29:00;;;;;;;195.05;46.58;;;;;;;;;;4112163;28;20070;-71
2021/10/07 02:31:02;;;;;;;214.50;48.13;;;;;;;;;;4112216;28;20043;-71
2021/10/07 02:33:03;;;;;;;197.30;46.03;;;;;;;;;;4096333;28;20035;-72
2021/10/07 02:35:05;;;;;;;144.73;41.90;;;;;;;;;;4098873;28;20043;-71
2021/10/07 02:37:06;;;;;;;205.95;46.10;;;;;;;;;;4122124;28;20089;-71
2021/10/07 02:39:07;;;;;;;166.35;44.13;;;;;;;;;;4114283;28;20125;-71
2021/10/07 02:41:08;;;;;;;229.48;46.97;;;;;;;;;;4112769;28;20030;-72
2021/10/07 02:43:10;;;;;;;215.85;49.70;;;;;;;;;;4112981;28;20050;-72
2021/10/07 02:45:14;;;;;;;227.48;48.17;;;;;;;;;;4114425;28;20200;-71
2021/10/07 02:47:15;;;;;;;153.38;34.40;;;;;;;;;;4096393;28;20444;-71
2021/10/07 02:49:16;;;;;;;249.55;47.42;;;;;;;;;;4128994;28;20390;-71
2021/10/07 02:51:18;;;;;;;239.73;48.95;;;;;;;;;;4112676;28;20040;-71
2021/10/07 02:53:19;;;;;;;145.40;34.78;;;;;;;;;;4123958;28;20442;-71
2021/10/07 02:55:20;;;;;;;168.85;41.60;;;;;;;;;;4113717;28;20114;-70
2021/10/07 02:57:21;;;;;;;207.73;46.03;;;;;;;;;;4127529;28;21629;-71
2021/10/07 02:59:22;;;;;;;100.97;31.58;;;;;;;;;;4105144;28;20041;-72
2021/10/07 03:01:26;;;;;;;139.93;35.80;;;;;;;;;;4111427;28;20395;-71
2021/10/07 03:03:27;;;;;;;301.85;55.25;;;;;;;;;;4115451;28;20097;-71
2021/10/07 03:05:28;;;;;;;298.45;53.35;;;;;;;;;;4112495;28;20062;-71
2021/10/07 03:07:29;;;;;;;373.13;59.17;;;;;;;;;;4112878;28;20043;-71
2021/10/07 03:09:30;;;;;;;288.23;53.13;;;;;;;;;;4112539;28;20031;-71
2021/10/07 03:11:31;;;;;;;322.95;53.70;;;;;;;;;;4128208;28;20054;-72
2021/10/07 03:13:32;;;;;;;333.40;56.88;;;;;;;;;;4128120;28;20490;-71
2021/10/07 03:15:33;;;;;;;293.15;55.33;;;;;;;;;;4104376;28;20035;-71
2021/10/07 03:17:36;;;;;;;207.25;48.30;;;;;;;;;;4112894;28;20395;-71
2021/10/07 03:19:37;;;;;;;305.85;54.45;;;;;;;;;;4123093;28;20161;-71
2021/10/07 03:21:39;;;;;;;218.93;48.83;;;;;;;;;;4112829;28;20066;-71
2021/10/07 03:23:40;;;;;;;238.40;49.83;;;;;;;;;;4098548;28;20483;-71
2021/10/07 03:25:41;;;;;;;286.65;50.78;;;;;;;;;;4097613;28;20414;-72
2021/10/07 03:27:42;;;;;;;339.67;56.80;;;;;;;;;;4116222;28;20039;-71
2021/10/07 03:29:43;;;;;;;252.90;45.20;;;;;;;;;;4129264;28;20143;-71
2021/10/07 03:31:45;;;;;;;196.45;40.33;;;;;;;;;;4096822;28;20431;-71
2021/10/07 03:33:46;;;;;;;425.77;63.60;;;;;;;;;;4113219;28;20553;-70
2021/10/07 03:35:47;;;;;;;288.75;52.85;;;;;;;;;;4114191;28;20101;-71
2021/10/07 03:37:48;;;;;;;209.50;39.78;;;;;;;;;;4114032;28;20478;-71
2021/10/07 03:39:50;;;;;;;403.55;58.67;;;;;;;;;;4109984;28;20809;-71
2021/10/07 03:41:51;;;;;;;409.88;60.00;;;;;;;;;;4113388;28;20082;-72
2021/10/07 03:43:52;;;;;;;309.55;55.10;;;;;;;;;;4111845;28;20105;-73
2021/10/07 03:45:53;;;;;;;467.98;65.75;;;;;;;;;;4116141;28;20413;-72
2021/10/07 03:47:54;;;;;;;432.95;63.75;;;;;;;;;;4115596;28;20557;-72
2021/10/07 03:49:57;;;;;;;314.95;60.65;;;;;;;;;;4117955;28;20490;-72
2021/10/07 03:51:58;;;;;;;359.77;61.90;;;;;;;;;;4099077;28;20058;-72
2021/10/07 03:53:59;;;;;;;404.30;64.13;;;;;;;;;;4114537;28;20129;-72
2021/10/07 03:56:00;;;;;;;377.55;63.78;;;;;;;;;;4103935;28;20470;-71
2021/10/07 03:58:01;;;;;;;376.52;65.35;;;;;;;;;;4112162;28;20489;-73
2021/10/07 04:00:06;;;;;;;371.30;62.15;;;;;;;;;;4115448;28;20031;-72
2021/10/07 04:02:07;;;;;;;400.50;62.08;;;;;;;;;;4116049;28;20061;-71
2021/10/07 04:04:08;;;;;;;392.13;65.57;;;;;;;;;;4130609;28;20038;-71
2021/10/07 04:06:09;;;;;;;396.27;65.25;;;;;;;;;;4113818;28;20043;-71
2021/10/07 04:08:11;;;;;;;206.60;46.03;;;;;;;;;;4115325;28;20462;-71
2021/10/07 04:10:12;;;;;;;399.65;66.10;;;;;;;;;;4118279;28;20051;-71
2021/10/07 04:12:13;;;;;;;389.65;62.75;;;;;;;;;;4114968;28;20049;-72
2021/10/07 04:14:14;;;;;;;407.50;64.38;;;;;;;;;;4117955;28;20509;-72
2021/10/07 04:16:15;;;;;;;475.60;70.30;;;;;;;;;;4115984;28;20439;-73
2021/10/07 04:18:17;;;;;;;247.15;49.38;;;;;;;;;;4115509;28;20122;-72
2021/10/07 04:20:18;;;;;;;213.07;43.40;;;;;;;;;;4130511;28;20098;-71
2021/10/07 04:22:20;;;;;;;295.17;48.33;;;;;;;;;;4127794;28;20053;-71
2021/10/07 04:24:21;;;;;;;353.00;60.67;;;;;;;;;;4115962;28;20401;-72
2021/10/07 04:26:22;;;;;;;395.63;62.70;;;;;;;;;;4114526;28;20078;-71
2021/10/07 04:28:23;;;;;;;244.07;50.50;;;;;;;;;;4128922;28;20057;-71
2021/10/07 04:30:25;;;;;;;341.58;60.60;;;;;;;;;;4114720;28;20043;-71
2021/10/07 04:32:26;;;;;;;332.27;55.38;;;;;;;;;;4116819;28;20749;-71
2021/10/07 04:34:27;;;;;;;349.77;58.25;;;;;;;;;;4114705;28;20027;-72
2021/10/07 04:36:29;;;;;;;426.60;61.50;;;;;;;;;;4098916;28;20062;-72
2021/10/07 04:38:30;;;;;;;332.40;56.00;;;;;;;;;;4114095;28;20544;-72
2021/10/07 04:40:31;;;;;;;298.08;49.70;;;;;;;;;;4099793;28;20035;-71
2021/10/07 04:42:32;;;;;;;397.08;58.38;;;;;;;;;;4113841;28;20055;-71
2021/10/07 04:44:33;;;;;;;324.02;52.15;;;;;;;;;;4115098;28;20062;-73
2021/10/07 04:46:34;;;;;;;263.38;44.83;;;;;;;;;;4115114;28;20115;-71
2021/10/07 04:48:36;;;;;;;356.75;53.83;;;;;;;;;;4128093;28;20517;-73
2021/10/07 04:50:37;;;;;;;392.95;57.05;;;;;;;;;;4113309;28;20858;-71
2021/10/07 04:52:40;;;;;;;366.23;57.77;;;;;;;;;;4113830;28;20042;-71
2021/10/07 04:54:41;;;;;;;390.90;56.80;;;;;;;;;;4112374;28;20820;-71
2021/10/07 04:56:42;;;;;;;328.13;54.13;;;;;;;;;;4114217;28;20085;-72
2021/10/07 04:58:43;;;;;;;316.45;52.13;;;;;;;;;;4129108;28;20713;-71
2021/10/07 05:00:44;;;;;;;346.55;53.78;;;;;;;;;;4125327;28;20042;-71
2021/10/07 05:02:46;;;;;;;363.15;56.33;;;;;;;;;;4114235;28;20035;-71
2021/10/07 05:04:47;;;;;;;374.95;58.55;;;;;;;;;;4112063;28;20149;-72
2021/10/07 05:06:48;;;;;;;381.17;54.83;;;;;;;;;;4113716;28;20026;-72
2021/10/07 05:08:49;;;;;;;383.65;54.67;;;;;;;;;;4108162;28;20073;-71
2021/10/07 05:10:50;;;;;;;337.80;45.90;;;;;;;;;;4098568;28;20047;-71
2021/10/07 05:12:52;;;;;;;351.08;45.00;;;;;;;;;;4126180;28;20040;-72
2021/10/07 05:14:53;;;;;;;343.70;46.60;;;;;;;;;;4113532;28;20522;-71
2021/10/07 05:16:54;;;;;;;332.77;43.83;;;;;;;;;;4111016;28;20042;-71
2021/10/07 05:18:55;;;;;;;257.35;37.83;;;;;;;;;;4112076;28;20134;-72
2021/10/07 05:20:56;;;;;;;240.77;36.33;;;;;;;;;;4103855;28;20075;-72
2021/10/07 05:22:57;;;;;;;277.38;37.95;;;;;;;;;;4107479;28;20037;-71
2021/10/07 05:24:58;;;;;;;273.05;37.00;;;;;;;;;;4110958;28;20134;-72
2021/10/07 05:27:00;;;;;;;261.00;35.20;;;;;;;;;;4121900;28;20046;-72
2021/10/07 05:29:01;;;;;;;278.75;37.15;;;;;;;;;;4098444;28;20046;-72
2021/10/07 05:31:02;;;;;;;261.00;34.75;;;;;;;;;;4102390;28;20517;-72
2021/10/07 05:33:03;;;;;;;271.70;33.90;;;;;;;;;;4103907;28;20370;-72
2021/10/07 05:35:05;;;;;;;225.93;33.10;;;;;;;;;;4105840;28;20499;-71
2021/10/07 05:37:06;;;;;;;243.07;30.60;;;;;;;;;;4117525;28;20422;-72
2021/10/07 05:39:07;;;;;;;201.73;27.52;;;;;;;;;;4108419;28;20139;-71
2021/10/07 05:41:08;;;;;;;227.93;28.77;;;;;;;;;;4121450;28;20041;-73
2021/10/07 05:43:11;;;;;;;278.75;32.45;;;;;;;;;;4106582;28;20043;-72
2021/10/07 05:45:12;;;;;;;223.33;28.53;;;;;;;;;;4112954;28;20042;-70
2021/10/07 05:47:14;;;;;;;202.52;25.27;;;;;;;;;;4114257;28;20085;-71
2021/10/07 05:49:15;;;;;;;179.32;25.05;;;;;;;;;;4113161;28;20066;-71
2021/10/07 05:51:16;;;;;;;125.53;21.95;;;;;;;;;;4110618;28;20173;-73
2021/10/07 05:53:17;;;;;;;236.52;29.15;;;;;;;;;;4096029;28;20058;-71
2021/10/07 05:55:18;;;;;;;269.65;32.00;;;;;;;;;;4124085;28;20458;-72
2021/10/07 05:57:19;;;;;;;198.43;27.77;;;;;;;;;;4120301;28;20042;-72
2021/10/07 05:59:20;;;;;;;226.85;30.48;;;;;;;;;;4115648;28;20031;-71
2021/10/07 06:01:21;;;;;;;170.98;27.92;;;;;;;;;;4111902;28;20117;-72
2021/10/07 06:03:23;;;;;;;223.90;31.17;;;;;;;;;;4114637;28;20038;-71
2021/10/07 06:05:24;;;;;;;206.95;29.35;;;;;;;;;;4115366;28;20510;-71
2021/10/07 06:07:25;;;;;;;185.48;27.63;;;;;;;;;;4113575;28;20389;-71
2021/10/07 06:09:26;;;;;;;250.88;32.33;;;;;;;;;;4111622;28;20122;-72
2021/10/07 06:11:27;;;;;;;181.57;28.70;;;;;;;;;;4115361;28;20042;-71
2021/10/07 06:13:28;;;;;;;258.63;32.10;;;;;;;;;;4113266;28;20038;-71
2021/10/07 06:15:29;;;;;;;232.25;32.92;;;;;;;;;;4099206;28;20042;-71
2021/10/07 06:17:31;;;;;;;212.75;33.30;;;;;;;;;;4130502;28;20132;-72
2021/10/07 06:19:36;;;;;;;268.25;36.60;;;;;;;;;;4112109;28;20433;-72
2021/10/07 06:21:38;;;;;;;214.82;34.90;;;;;;;;;;4098175;28;20479;-72
2021/10/07 06:23:41;;;;;;;188.38;32.83;;;;;;;;;;4113148;28;20034;-72
2021/10/07 06:25:42;;;;;;;184.10;28.80;;;;;;;;;;4114334;28;20061;-72
2021/10/07 06:27:43;;;;;;;175.30;29.92;;;;;;;;;;4113988;28;20035;-71
2021/10/07 06:29:45;;;;;;;165.25;27.52;;;;;;;;;;4124092;28;20089;-71
2021/10/07 06:31:46;;;;;;;148.98;25.75;;;;;;;;;;4128429;28;20038;-71
2021/10/07 06:33:47;;;;;;;196.15;26.55;;;;;;;;;;4108989;28;20030;-72
2021/10/07 06:35:48;;;;;;;151.55;23.25;;;;;;;;;;4111548;28;20042;-72
2021/10/07 06:37:50;;;;;;;151.00;24.35;;;;;;;;;;4110252;28;20517;-71
2021/10/07 06:39:51;;;;;;;148.18;24.13;;;;;;;;;;4120264;28;20055;-72
2021/10/07 06:41:52;;;;;;;192.93;26.45;;;;;;;;;;4112431;28;20034;-71
2021/10/07 06:43:53;;;;;;;225.75;28.40;;;;;;;;;;4112977;28;20410;-72
2021/10/07 06:45:54;;;;;;;198.25;27.10;;;;;;;;;;4112812;28;20553;-72
2021/10/07 06:47:55;;;;;;;202.40;28.92;;;;;;;;;;4128247;28;20062;-72
2021/10/07 06:49:56;;;;;;;187.10;28.17;;;;;;;;;;4103589;28;20525;-73
2021/10/07 06:51:57;;;;;;;143.30;25.08;;;;;;;;;;4096402;28;20042;-72
2021/10/07 06:54:01;;;;;;;142.63;23.77;;;;;;;;;;4110823;28;20034;-71
2021/10/07 06:56:03;;;;;;;118.57;22.50;;;;;;;;;;4119382;28;20049;-71
2021/10/07 06:58:05;;;;;;;133.63;23.13;;;;;;;;;;4111588;28;20509;-71
2021/10/07 07:00:08;;;;;;;121.93;22.70;;;;;;;;;;4111326;28;20437;-72
2021/10/07 07:02:10;;;;;;;179.35;26.65;;;;;;;;;;4125154;28;20056;-71
2021/10/07 07:04:15;;;;;;;184.48;24.40;;;;;;;;;;4123134;28;20647;-72
2021/10/07 07:06:16;;;;;;;166.80;23.58;;;;;;;;;;4127624;28;20413;-71
2021/10/07 07:08:17;;;;;;;146.20;22.63;;;;;;;;;;4108419;28;20401;-72
2021/10/07 07:10:19;;;;;;;147.88;21.40;;;;;;;;;;4113862;28;20070;-71
2021/10/07 07:12:20;;;;;;;162.75;23.25;;;;;;;;;;4113440;28;20039;-71
2021/10/07 07:14:21;;;;;;;106.15;20.65;;;;;;;;;;4127687;28;20401;-71
2021/10/07 07:16:22;;;;;;;142.52;23.83;;;;;;;;;;4113385;28;20501;-71
2021/10/07 07:18:23;;;;;;;80.18;18.48;;;;;;;;;;4111637;28;20054;-72
2021/10/07 07:20:24;;;;;;;167.05;24.08;;;;;;;;;;4113337;28;20037;-72
2021/10/07 07:22:26;;;;;;;255.10;31.23;;;;;;;;;;4112125;28;20038;-71
2021/10/07 07:24:27;;;;;;;144.90;25.98;;;;;;;;;;4109068;28;20035;-71
2021/10/07 07:26:29;;;;;;;274.38;32.53;;;;;;;;;;4111141;28;20118;-71
2021/10/07 07:28:31;;;;;;;231.00;28.02;;;;;;;;;;4125389;28;20490;-72
2021/10/07 07:30:33;;;;;;;143.57;23.95;;;;;;;;;;4129316;28;20396;-72
2021/10/07 07:32:34;;;;;;;188.13;26.63;;;;;;;;;;4109686;28;20069;-70
2021/10/07 07:34:35;;;;;;;173.85;26.92;;;;;;;;;;4128747;28;20096;-71
2021/10/07 07:36:36;;;;;;;139.55;23.85;;;;;;;;;;4124678;28;20199;-70
2021/10/07 07:38:37;;;;;;;105.72;21.58;;;;;;;;;;4098648;28;20046;-71
2021/10/07 07:40:38;;;;;;;150.55;26.70;;;;;;;;;;4127268;28;20152;-72
2021/10/07 07:42:40;;;;;;;242.75;32.55;;;;;;;;;;4127798;28;20072;-71
2021/10/07 07:44:42;;;;;;;132.25;25.27;;;;;;;;;;4112004;28;20035;-72
2021/10/07 07:46:43;;;;;;;239.35;32.00;;;;;;;;;;4111444;28;20030;-72
2021/10/07 07:48:45;;;;;;;208.02;31.52;;;;;;;;;;4096434;28;20533;-71
2021/10/07 07:50:47;;;;;;;197.60;30.33;;;;;;;;;;4120825;28;20658;-71
2021/10/07 07:52:48;;;;;;;226.93;32.45;;;;;;;;;;4127913;28;20307;-71
2021/10/07 07:54:50;;;;;;;140.88;25.77;;;;;;;;;;4113418;28;20042;-71
2021/10/07 07:56:51;;;;;;;151.38;26.40;;;;;;;;;;4112273;28;20062;-72
2021/10/07 07:58:53;;;;;;;180.35;28.27;;;;;;;;;;4124275;28;20383;-71
2021/10/07 08:00:55;;;;;;;169.77;28.45;;;;;;;;;;4113548;28;20043;-72
2021/10/07 08:02:56;;;;;;;144.38;27.50;;;;;;;;;;4111358;28;20043;-70
2021/10/07 08:04:57;;;;;;;123.22;24.13;;;;;;;;;;4127614;28;20058;-70
2021/10/07 08:06:59;;;;;;;155.13;27.45;;;;;;;;;;4125103;28;20104;-70
2021/10/07 08:09:00;;;;;;;136.20;25.65;;;;;;;;;;4103784;28;20073;-72
2021/10/07 08:11:01;;;;;;;141.77;25.02;;;;;;;;;;4118968;28;20069;-73
2021/10/07 08:13:03;;;;;;;201.73;27.95;;;;;;;;;;4083983;28;20055;-70
2021/10/07 08:15:06;;;;;;;158.60;28.77;;;;;;;;;;4123212;28;20074;-71
2021/10/07 08:17:08;;;;;;;101.72;23.25;;;;;;;;;;4112556;28;20047;-70
2021/10/07 08:19:09;;;;;;;110.50;21.52;;;;;;;;;;4112754;28;20129;-71
2021/10/07 08:21:10;;;;;;;74.18;17.92;;;;;;;;;;4097123;28;20391;-70
2021/10/07 08:23:13;;;;;;;82.88;20.10;;;;;;;;;;4110417;28;20027;-71
2021/10/07 08:25:15;;;;;;;60.80;17.95;;;;;;;;;;4111074;28;20549;-71
2021/10/07 08:27:18;;;;;;;117.30;23.30;;;;;;;;;;4125658;28;20110;-71
2021/10/07 08:29:19;;;;;;;65.20;18.85;;;;;;;;;;4113111;28;20391;-71
2021/10/07 08:31:20;;;;;;;62.67;18.48;;;;;;;;;;4114354;28;20077;-72
2021/10/07 08:33:21;;;;;;;73.45;21.08;;;;;;;;;;4114772;28;20525;-71
2021/10/07 08:35:23;;;;;;;143.18;28.05;;;;;;;;;;4115390;28;20030;-71
2021/10/07 08:37:24;;;;;;;86.90;24.15;;;;;;;;;;4113770;28;20042;-71
2021/10/07 08:39:26;;;;;;;85.03;21.02;;;;;;;;;;4115592;28;20026;-71
2021/10/07 08:41:27;;;;;;;137.90;26.98;;;;;;;;;;4114756;28;20042;-70
2021/10/07 08:43:28;;;;;;;111.50;26.65;;;;;;;;;;4115558;28;20046;-70
2021/10/07 08:45:30;;;;;;;211.10;35.67;;;;;;;;;;4114240;28;20126;-70
2021/10/07 08:47:31;;;;;;;153.35;33.95;;;;;;;;;;4130655;28;20540;-71
2021/10/07 08:49:37;;;;;;;143.75;30.52;;;;;;;;;;4123963;28;20149;-70
2021/10/07 08:51:39;;;;;;;94.03;26.50;;;;;;;;;;4113415;28;20086;-70
2021/10/07 08:53:40;;;;;;;88.88;28.25;;;;;;;;;;4109663;28;20047;-70
2021/10/07 08:55:41;;;;;;;141.32;32.97;;;;;;;;;;4117037;28;20182;-71
2021/10/07 08:57:42;;;;;;;131.50;30.27;;;;;;;;;;4114392;28;20537;-70
2021/10/07 08:59:43;;;;;;;214.25;38.13;;;;;;;;;;4127352;28;20482;-70
2021/10/07 09:01:46;;;;;;;149.18;35.25;;;;;;;;;;4112981;28;20509;-70
2021/10/07 09:03:47;;;;;;;170.00;41.17;;;;;;;;;;4126915;28;20048;-70
2021/10/07 09:05:49;;;;;;;176.85;39.88;;;;;;;;;;4106692;28;20035;-70
2021/10/07 09:08:04;;;;;;;210.82;43.97;;;;;;;;;;4109034;28;20471;-71
2021/10/07 09:10:06;;;;;;;154.43;38.70;;;;;;;;;;4088216;29;20463;-70
2021/10/07 09:12:12;;;;;;;168.30;41.53;;;;;;;;;;4115767;28;20041;-70
2021/10/07 09:14:15;;;;;;;152.52;38.13;;;;;;;;;;4111484;28;20050;-70
2021/10/07 09:16:16;;;;;;;128.57;38.35;;;;;;;;;;4115431;28;20615;-70
2021/10/07 09:18:19;;;;;;;112.60;34.72;;;;;;;;;;4100145;28;20527;-70
2021/10/07 09:20:34;;;;;;;84.13;28.83;;;;;;;;;;4110927;28;20097;-70
2021/10/07 09:22:35;;;;;;;78.32;27.88;;;;;;;;;;4112724;28;20730;-70
2021/10/07 09:24:40;;;;;;;47.90;21.75;;;;;;;;;;4115319;28;20050;-70
2021/10/07 09:26:42;;;;;;;55.45;23.83;;;;;;;;;;4129862;28;20035;-70
2021/10/07 09:28:58;;;;;;;39.58;21.30;;;;;;;;;;4125632;28;20088;-71
2021/10/07 09:31:01;;;;;;;36.30;19.88;;;;;;;;;;4114340;28;20048;-70
2021/10/07 09:33:02;;;;;;;36.85;21.45;;;;;;;;;;4114031;28;20097;-70
2021/10/07 09:35:09;;;;;;;32.42;21.02;;;;;;;;;;4114438;28;20057;-71
2021/10/07 09:37:22;;;;;;;31.60;18.92;;;;;;;;;;4110507;28;20035;-71
2021/10/07 09:39:23;;;;;;;27.27;18.08;;;;;;;;;;4115256;28;20463;-70
2021/10/07 09:41:26;;;;;;;22.60;16.92;;;;;;;;;;4097272;28;20608;-71
2021/10/07 09:43:54;;;;;;;20.52;15.20;;;;;;;;;;4113951;28;20058;-71
2021/10/07 09:45:55;;;;;;;19.77;15.40;;;;;;;;;;4114408;28;20151;-71
2021/10/07 09:48:06;;;;;;;19.48;16.92;;;;;;;;;;4117131;28;20084;-71
2021/10/07 09:50:14;;;;;;;18.02;16.13;;;;;;;;;;4113415;28;20121;-71
2021/10/07 09:52:15;;;;;;;17.33;15.30;;;;;;;;;;4111469;28;20035;-71
2021/10/07 09:54:18;;;;;;;17.45;15.70;;;;;;;;;;4112775;28;20439;-71
2021/10/07 09:56:29;;;;;;;20.10;17.33;;;;;;;;;;4111002;28;20134;-70
2021/10/07 09:58:43;;;;;;;22.23;16.05;;;;;;;;;;4129793;28;20460;-70
2021/10/07 10:00:46;;;;;;;20.10;16.58;;;;;;;;;;4130607;28;20109;-70
2021/10/07 10:02:47;;;;;;;19.70;16.50;;;;;;;;;;4113241;28;20462;-71
2021/10/07 10:04:54;;;;;;;17.25;15.25;;;;;;;;;;4113556;28;20031;-69
2021/10/07 10:06:55;;;;;;;17.67;14.70;;;;;;;;;;4112210;28;20085;-70
2021/10/07 10:08:57;;;;;;;17.75;15.95;;;;;;;;;;4114993;28;20105;-70
2021/10/07 10:10:58;;;;;;;24.83;17.55;;;;;;;;;;4115063;28;20038;-70
2021/10/07 10:12:59;;;;;;;18.08;16.27;;;;;;;;;;4112917;28;20101;-70
2021/10/07 10:15:05;;;;;;;19.20;17.20;;;;;;;;;;4114668;28;20398;-70
2021/10/07 10:17:06;;;;;;;20.75;18.55;;;;;;;;;;4128671;28;20048;-70
2021/10/07 10:19:08;;;;;;;20.60;17.25;;;;;;;;;;4120155;28;20035;-70
2021/10/07 10:21:10;;;;;;;19.08;16.77;;;;;;;;;;4106608;28;20121;-70
2021/10/07 10:23:14;;;;;;;20.88;16.48;;;;;;;;;;4109238;28;20047;-70
2021/10/07 10:25:15;;;;;;;21.77;17.45;;;;;;;;;;4112643;28;20031;-72
2021/10/07 10:27:17;;;;;;;21.45;17.33;;;;;;;;;;4109685;28;20053;-70
2021/10/07 10:29:22;;;;;;;19.30;17.23;;;;;;;;;;4109084;28;20038;-70
2021/10/07 10:31:29;;;;;;;19.38;17.05;;;;;;;;;;4128341;28;20050;-71
2021/10/07 10:33:39;;;;;;;19.40;17.30;;;;;;;;;;4110316;28;20062;-71
2021/10/07 10:35:41;;;;;;;16.75;15.05;;;;;;;;;;4112699;28;20088;-71
2021/10/07 10:37:56;;;;;;;16.95;15.25;;;;;;;;;;4126659;28;20100;-72
2021/10/07 10:40:09;;;;;;;17.90;16.00;;;;;;;;;;4111495;28;20403;-71
2021/10/07 10:42:16;;;;;;;;;;;;;;;;;;4112848;28;20131;-72
2021/10/07 10:44:40;;;;;;;17.48;15.85;;;;;;;;;;4127180;28;19964;-72
2021/10/07 10:46:41;;;;;;;16.55;14.68;;;;;;;;;;4111609;28;20063;-71
2021/10/07 10:48:48;;;;;;;16.50;14.90;;;;;;;;;;4111839;28;20049;-71
2021/10/07 10:51:01;;;;;;;16.95;15.15;;;;;;;;;;4112275;28;20039;-71
2021/10/07 10:53:03;;;;;;;16.60;14.90;;;;;;;;;;4113323;28;20438;-72
2021/10/07 10:55:09;;;;;;;17.20;15.40;;;;;;;;;;4127774;28;20043;-71
2021/10/07 10:57:25;;;;;;;18.23;16.33;;;;;;;;;;4112427;28;20070;-71
2021/10/07 10:59:28;;;;;;;15.75;14.10;;;;;;;;;;4114154;28;20062;-71
2021/10/07 11:01:29;;;;;;;15.93;14.23;;;;;;;;;;4112435;28;20057;-71
2021/10/07 11:03:30;;;;;;;16.35;14.75;;;;;;;;;;4112572;28;20189;-71
2021/10/07 11:05:31;;;;;;;16.88;15.07;;;;;;;;;;4113983;28;20458;-72
2021/10/07 11:07:36;;;;;;;19.40;17.38;;;;;;;;;;4103166;28;20417;-71
2021/10/07 11:09:56;;;;;;;20.63;17.20;;;;;;;;;;4103680;28;20050;-71
2021/10/07 11:11:57;;;;;;;19.00;16.80;;;;;;;;;;4111113;28;20044;-72
2021/10/07 11:13:58;;;;;;;20.40;17.33;;;;;;;;;;4108875;28;20039;-71
2021/10/07 11:16:14;;;;;;;18.65;16.77;;;;;;;;;;4111774;28;20038;-71
2021/10/07 11:18:16;;;;;;;17.83;15.95;;;;;;;;;;4124136;28;20046;-71
2021/10/07 11:20:30;;;;;;;18.15;16.25;;;;;;;;;;4112934;28;20057;-71
2021/10/07 11:22:31;;;;;;;17.08;15.27;;;;;;;;;;4111232;28;20121;-71
2021/10/07 11:24:32;;;;;;;19.17;15.60;;;;;;;;;;4112006;28;20555;-71
2021/10/07 11:26:34;;;;;;;17.35;15.55;;;;;;;;;;4110910;28;20612;-73
2021/10/07 11:28:44;;;;;;;18.85;15.60;;;;;;;;;;4122989;28;20449;-70
2021/10/07 11:30:46;;;;;;;17.10;15.38;;;;;;;;;;4109988;28;20434;-72
2021/10/07 11:32:48;;;;;;;16.95;14.35;;;;;;;;;;4112674;28;20039;-70
2021/10/07 11:35:06;;;;;;;16.80;15.13;;;;;;;;;;4112761;28;20697;-71
2021/10/07 11:37:07;;;;;;;16.25;14.63;;;;;;;;;;4108639;28;20046;-71
2021/10/07 11:39:08;;;;;;;18.23;16.35;;;;;;;;;;4127380;28;20037;-69
2021/10/07 11:41:10;;;;;;;19.33;15.95;;;;;;;;;;4113785;28;20034;-70
2021/10/07 11:43:15;;;;;;;16.45;14.77;;;;;;;;;;4097998;28;20043;-71
2021/10/07 11:45:24;;;;;;;16.88;15.18;;;;;;;;;;4111976;28;20043;-71
2021/10/07 11:47:29;;;;;;;16.88;15.23;;;;;;;;;;4112516;28;20114;-70